sensor_id;sensor_type;location;lat;lon;timestamp;pressure;altitude;pressure_sealevel;temperature
24714;BMP280;12820;51.580;5.010;2023-02-03T00:01:43;102561.31;;;10.94
24714;BMP280;12820;51.580;5.010;2023-02-03T00:06:46;102587.31;;;10.94
24714;BMP280;12820;51.580;5.010;2023-02-03T00:11:48;102588.19;;;10.95
24714;BMP280;12820;51.580;5.010;2023-02-03T00:16:50;102594.88;;;10.96
24714;BMP280;12820;51.580;5.010;2023-02-03T00:21:52;102603.28;;;10.95
24714;BMP280;12820;51.580;5.010;2023-02-03T00:26:54;102609.97;;;10.96
24714;BMP280;12820;51.580;5.010;2023-02-03T00:31:56;102606.63;;;10.97
24714;BMP280;12820;51.580;5.010;2023-02-03T00:36:59;102608.31;;;10.98
24714;BMP280;12820;51.580;5.010;2023-02-03T00:42:03;102616.69;;;10.97
24714;BMP280;12820;51.580;5.010;2023-02-03T00:47:05;102620.09;;;10.99
24714;BMP280;12820;51.580;5.010;2023-02-03T00:52:07;102610.88;;;10.99
24714;BMP280;12820;51.580;5.010;2023-02-03T00:57:09;102625.13;;;10.99
24714;BMP280;12820;51.580;5.010;2023-02-03T01:02:13;102641.06;;;10.99
24714;BMP280;12820;51.580;5.010;2023-02-03T01:07:16;102646.94;;;11.00
24714;BMP280;12820;51.580;5.010;2023-02-03T01:12:19;102625.97;;;10.99
24714;BMP280;12820;51.580;5.010;2023-02-03T01:17:23;102627.66;;;11.00
24714;BMP280;12820;51.580;5.010;2023-02-03T01:22:28;102611.72;;;11.00
24714;BMP280;12820;51.580;5.010;2023-02-03T01:27:31;102603.31;;;11.00
24714;BMP280;12820;51.580;5.010;2023-02-03T01:32:33;102624.31;;;11.00
24714;BMP280;12820;51.580;5.010;2023-02-03T01:37:38;102615.09;;;11.00
24714;BMP280;12820;51.580;5.010;2023-02-03T01:42:40;102604.16;;;11.00
24714;BMP280;12820;51.580;5.010;2023-02-03T01:47:45;102611.72;;;11.00
24714;BMP280;12820;51.580;5.010;2023-02-03T01:52:52;102606.69;;;11.00
24714;BMP280;12820;51.580;5.010;2023-02-03T01:58:01;102594.94;;;11.01
24714;BMP280;12820;51.580;5.010;2023-02-03T02:03:06;102559.69;;;10.99
24714;BMP280;12820;51.580;5.010;2023-02-03T02:08:11;102569.75;;;10.99
24714;BMP280;12820;51.580;5.010;2023-02-03T02:13:14;102565.59;;;10.99
24714;BMP280;12820;51.580;5.010;2023-02-03T02:34:36;102567.28;;;11.00
24714;BMP280;12820;51.580;5.010;2023-02-03T02:39:59;102568.09;;;11.00
24714;BMP280;12820;51.580;5.010;2023-02-03T02:45:36;102580.69;;;11.02
24714;BMP280;12820;51.580;5.010;2023-02-03T02:50:40;102581.53;;;11.02
24714;BMP280;12820;51.580;5.010;2023-02-03T02:55:45;102569.00;;;11.04
24714;BMP280;12820;51.580;5.010;2023-02-03T03:00:47;102570.69;;;11.05
24714;BMP280;12820;51.580;5.010;2023-02-03T03:05:54;102579.94;;;11.07
24714;BMP280;12820;51.580;5.010;2023-02-03T03:11:02;102573.25;;;11.09
24714;BMP280;12820;51.580;5.010;2023-02-03T03:16:06;102561.50;;;11.11
24714;BMP280;12820;51.580;5.010;2023-02-03T03:21:16;102538.03;;;11.12
24714;BMP280;12820;51.580;5.010;2023-02-03T03:26:28;102550.63;;;11.15
24714;BMP280;12820;51.580;5.010;2023-02-03T03:31:31;102556.53;;;11.17
24714;BMP280;12820;51.580;5.010;2023-02-03T03:41:57;102530.53;;;11.17
24714;BMP280;12820;51.580;5.010;2023-02-03T03:47:16;102538.09;;;11.18
24714;BMP280;12820;51.580;5.010;2023-02-03T03:52:24;102559.09;;;11.20
24714;BMP280;12820;51.580;5.010;2023-02-03T03:57:35;102554.94;;;11.23
24714;BMP280;12820;51.580;5.010;2023-02-03T04:02:41;102566.69;;;11.23
24714;BMP280;12820;51.580;5.010;2023-02-03T04:07:46;102580.97;;;11.24
24714;BMP280;12820;51.580;5.010;2023-02-03T04:12:48;102560.81;;;11.25
24714;BMP280;12820;51.580;5.010;2023-02-03T04:17:50;102576.78;;;11.26
24714;BMP280;12820;51.580;5.010;2023-02-03T04:22:52;102586.03;;;11.27
24714;BMP280;12820;51.580;5.010;2023-02-03T04:27:54;102561.66;;;11.26
24714;BMP280;12820;51.580;5.010;2023-02-03T04:32:57;102571.75;;;11.26
24714;BMP280;12820;51.580;5.010;2023-02-03T04:37:59;102589.34;;;11.26
24714;BMP280;12820;51.580;5.010;2023-02-03T04:43:06;102570.88;;;11.25
24714;BMP280;12820;51.580;5.010;2023-02-03T04:48:08;102570.91;;;11.24
24714;BMP280;12820;51.580;5.010;2023-02-03T04:53:10;102562.50;;;11.23
24714;BMP280;12820;51.580;5.010;2023-02-03T04:58:12;102553.28;;;11.24
24714;BMP280;12820;51.580;5.010;2023-02-03T05:03:14;102549.91;;;11.23
24714;BMP280;12820;51.580;5.010;2023-02-03T05:08:16;102551.56;;;11.24
24714;BMP280;12820;51.580;5.010;2023-02-03T05:13:18;102548.25;;;11.24
24714;BMP280;12820;51.580;5.010;2023-02-03T05:18:21;102563.34;;;11.24
24714;BMP280;12820;51.580;5.010;2023-02-03T05:23:23;102589.34;;;11.23
24714;BMP280;12820;51.580;5.010;2023-02-03T05:28:25;102591.84;;;11.23
24714;BMP280;12820;51.580;5.010;2023-02-03T05:33:28;102596.88;;;11.23
24714;BMP280;12820;51.580;5.010;2023-02-03T05:38:30;102601.94;;;11.23
24714;BMP280;12820;51.580;5.010;2023-02-03T05:43:32;102591.84;;;11.23
24714;BMP280;12820;51.580;5.010;2023-02-03T05:48:34;102580.09;;;11.22
24714;BMP280;12820;51.580;5.010;2023-02-03T05:53:36;102579.28;;;11.23
24714;BMP280;12820;51.580;5.010;2023-02-03T05:58:38;102584.31;;;11.23
24714;BMP280;12820;51.580;5.010;2023-02-03T06:03:41;102582.63;;;11.22
24714;BMP280;12820;51.580;5.010;2023-02-03T06:08:46;102579.28;;;11.23
24714;BMP280;12820;51.580;5.010;2023-02-03T06:13:49;102594.38;;;11.23
24714;BMP280;12820;51.580;5.010;2023-02-03T06:18:52;102585.13;;;11.22
24714;BMP280;12820;51.580;5.010;2023-02-03T06:23:55;102592.66;;;11.20
24714;BMP280;12820;51.580;5.010;2023-02-03T06:28:57;102605.25;;;11.22
24714;BMP280;12820;51.580;5.010;2023-02-03T06:33:59;102612.81;;;11.22
24714;BMP280;12820;51.580;5.010;2023-02-03T06:39:03;102585.13;;;11.22
24714;BMP280;12820;51.580;5.010;2023-02-03T06:44:05;102596.84;;;11.20
24714;BMP280;12820;51.580;5.010;2023-02-03T06:49:08;102590.13;;;11.20
24714;BMP280;12820;51.580;5.010;2023-02-03T06:54:11;102577.56;;;11.20
24714;BMP280;12820;51.580;5.010;2023-02-03T06:59:13;102574.22;;;11.21
24714;BMP280;12820;51.580;5.010;2023-02-03T07:04:15;102575.06;;;11.22
24714;BMP280;12820;51.580;5.010;2023-02-03T07:09:17;102598.56;;;11.22
24714;BMP280;12820;51.580;5.010;2023-02-03T07:14:19;102609.47;;;11.23
24714;BMP280;12820;51.580;5.010;2023-02-03T07:19:21;102610.31;;;11.22
24714;BMP280;12820;51.580;5.010;2023-02-03T07:24:24;102627.09;;;11.23
24714;BMP280;12820;51.580;5.010;2023-02-03T07:29:26;102638.00;;;11.23
24714;BMP280;12820;51.580;5.010;2023-02-03T07:34:28;102620.38;;;11.25
24714;BMP280;12820;51.580;5.010;2023-02-03T07:39:30;102629.63;;;11.26
24714;BMP280;12820;51.580;5.010;2023-02-03T07:44:33;102622.94;;;11.26
24714;BMP280;12820;51.580;5.010;2023-02-03T07:49:36;102633.06;;;11.28
24714;BMP280;12820;51.580;5.010;2023-02-03T07:54:38;102637.28;;;11.29
24714;BMP280;12820;51.580;5.010;2023-02-03T07:59:40;102631.41;;;11.31
24714;BMP280;12820;51.580;5.010;2023-02-03T08:04:43;102644.03;;;11.33
24714;BMP280;12820;51.580;5.010;2023-02-03T08:09:45;102637.31;;;11.35
24714;BMP280;12820;51.580;5.010;2023-02-03T08:14:47;102648.25;;;11.35
24714;BMP280;12820;51.580;5.010;2023-02-03T08:19:49;102656.66;;;11.38
24714;BMP280;12820;51.580;5.010;2023-02-03T08:24:51;102666.81;;;11.43
24714;BMP280;12820;51.580;5.010;2023-02-03T08:29:54;102654.22;;;11.43
24714;BMP280;12820;51.580;5.010;2023-02-03T08:34:56;102670.19;;;11.46
24714;BMP280;12820;51.580;5.010;2023-02-03T08:39:58;102684.47;;;11.49
24714;BMP280;12820;51.580;5.010;2023-02-03T08:45:01;102708.88;;;11.53
24714;BMP280;12820;51.580;5.010;2023-02-03T08:50:07;102710.63;;;11.56
24714;BMP280;12820;51.580;5.010;2023-02-03T08:55:09;102715.69;;;11.59
24714;BMP280;12820;51.580;5.010;2023-02-03T09:00:13;102709.00;;;11.63
24714;BMP280;12820;51.580;5.010;2023-02-03T09:05:15;102708.22;;;11.67
24714;BMP280;12820;51.580;5.010;2023-02-03T09:10:19;102696.47;;;11.72
24714;BMP280;12820;51.580;5.010;2023-02-03T09:15:21;102715.06;;;11.79
24714;BMP280;12820;51.580;5.010;2023-02-03T09:20:23;102715.97;;;11.87
24714;BMP280;12820;51.580;5.010;2023-02-03T09:25:27;102700.94;;;11.94
24714;BMP280;12820;51.580;5.010;2023-02-03T09:30:29;102703.59;;;12.07
24714;BMP280;12820;51.580;5.010;2023-02-03T09:35:32;102726.34;;;12.16
24714;BMP280;12820;51.580;5.010;2023-02-03T09:40:35;102736.50;;;12.22
24714;BMP280;12820;51.580;5.010;2023-02-03T09:45:37;102725.59;;;12.26
24714;BMP280;12820;51.580;5.010;2023-02-03T09:50:42;102739.91;;;12.28
24714;BMP280;12820;51.580;5.010;2023-02-03T09:55:46;102745.00;;;12.33
24714;BMP280;12820;51.580;5.010;2023-02-03T10:00:56;102746.72;;;12.37
24714;BMP280;12820;51.580;5.010;2023-02-03T10:06:24;102751.00;;;12.48
24714;BMP280;12820;51.580;5.010;2023-02-03T10:22:20;102735.41;;;12.97
24714;BMP280;12820;51.580;5.010;2023-02-03T10:27:24;102747.25;;;13.05
24714;BMP280;12820;51.580;5.010;2023-02-03T10:32:26;102749.81;;;13.14
24714;BMP280;12820;51.580;5.010;2023-02-03T10:37:32;102744.00;;;13.27
24714;BMP280;12820;51.580;5.010;2023-02-03T10:42:35;102749.13;;;13.43
24714;BMP280;12820;51.580;5.010;2023-02-03T10:47:57;102759.28;;;13.51
24714;BMP280;12820;51.580;5.010;2023-02-03T10:53:21;102754.25;;;13.59
24714;BMP280;12820;51.580;5.010;2023-02-03T10:58:28;102752.59;;;13.65
24714;BMP280;12820;51.580;5.010;2023-02-03T11:03:30;102763.56;;;13.73
24714;BMP280;12820;51.580;5.010;2023-02-03T11:08:35;102769.50;;;13.81
24714;BMP280;12820;51.580;5.010;2023-02-03T11:13:38;102768.69;;;13.86
24714;BMP280;12820;51.580;5.010;2023-02-03T11:29:05;102762.78;;;13.86
24714;BMP280;12820;51.580;5.010;2023-02-03T11:34:16;102758.59;;;13.92
24714;BMP280;12820;51.580;5.010;2023-02-03T11:39:23;102754.41;;;14.01
24714;BMP280;12820;51.580;5.010;2023-02-03T11:44:28;102756.13;;;14.15
24714;BMP280;12820;51.580;5.010;2023-02-03T11:59:59;102745.19;;;14.58
24714;BMP280;12820;51.580;5.010;2023-02-03T12:26:49;102752.75;;;14.83
24714;BMP280;12820;51.580;5.010;2023-02-03T12:32:32;102745.16;;;14.79
24714;BMP280;12820;51.580;5.010;2023-02-03T12:38:00;102756.13;;;14.75
24714;BMP280;12820;51.580;5.010;2023-02-03T12:43:18;102745.19;;;14.70
24714;BMP280;12820;51.580;5.010;2023-02-03T12:53:52;102773.00;;;14.57
24714;BMP280;12820;51.580;5.010;2023-02-03T12:59:05;102783.97;;;14.49
24714;BMP280;12820;51.580;5.010;2023-02-03T13:04:14;102773.88;;;14.44
24714;BMP280;12820;51.580;5.010;2023-02-03T13:09:32;102761.22;;;14.46
24714;BMP280;12820;51.580;5.010;2023-02-03T13:14:47;102782.31;;;14.45
24714;BMP280;12820;51.580;5.010;2023-02-03T13:20:04;102778.91;;;14.37
24714;BMP280;12820;51.580;5.010;2023-02-03T13:25:11;102785.66;;;14.32
24714;BMP280;12820;51.580;5.010;2023-02-03T13:31:25;102794.94;;;14.32
24714;BMP280;12820;51.580;5.010;2023-02-03T13:41:27;102802.53;;;14.40
24714;BMP280;12820;51.580;5.010;2023-02-03T13:46:33;102801.72;;;14.41
24714;BMP280;12820;51.580;5.010;2023-02-03T13:51:45;102803.38;;;14.47
24714;BMP280;12820;51.580;5.010;2023-02-03T13:56:57;102804.22;;;14.53
24714;BMP280;12820;51.580;5.010;2023-02-03T14:02:37;102806.75;;;14.52
24714;BMP280;12820;51.580;5.010;2023-02-03T14:07:40;102823.63;;;14.50
24714;BMP280;12820;51.580;5.010;2023-02-03T14:17:54;102812.66;;;14.48
24714;BMP280;12820;51.580;5.010;2023-02-03T14:28:11;102819.41;;;14.49
24714;BMP280;12820;51.580;5.010;2023-02-03T14:33:13;102813.50;;;14.47
24714;BMP280;12820;51.580;5.010;2023-02-03T14:38:15;102837.09;;;14.39
24714;BMP280;12820;51.580;5.010;2023-02-03T14:49:08;102823.59;;;14.29
24714;BMP280;12820;51.580;5.010;2023-02-03T14:59:55;102835.41;;;14.27
24714;BMP280;12820;51.580;5.010;2023-02-03T15:10:24;102833.69;;;14.15
24714;BMP280;12820;51.580;5.010;2023-02-03T15:15:29;102831.13;;;14.09
24714;BMP280;12820;51.580;5.010;2023-02-03T15:20:39;102837.84;;;14.04
24714;BMP280;12820;51.580;5.010;2023-02-03T15:25:42;102840.38;;;13.98
24714;BMP280;12820;51.580;5.010;2023-02-03T15:30:46;102832.75;;;13.95
24714;BMP280;12820;51.580;5.010;2023-02-03T15:35:56;102847.06;;;13.86
24714;BMP280;12820;51.580;5.010;2023-02-03T15:40:59;102854.56;;;13.76
24714;BMP280;12820;51.580;5.010;2023-02-03T15:46:06;102851.16;;;13.65
24714;BMP280;12820;51.580;5.010;2023-02-03T15:56:38;102872.13;;;13.50
24714;BMP280;12820;51.580;5.010;2023-02-03T16:01:42;102882.16;;;13.42
24714;BMP280;12820;51.580;5.010;2023-02-03T16:06:47;102879.63;;;13.38
24714;BMP280;12820;51.580;5.010;2023-02-03T16:17:21;102905.63;;;13.25
24714;BMP280;12820;51.580;5.010;2023-02-03T16:22:28;102904.72;;;13.19
24714;BMP280;12820;51.580;5.010;2023-02-03T16:27:33;102919.84;;;13.14
24714;BMP280;12820;51.580;5.010;2023-02-03T16:32:35;102932.44;;;13.09
24714;BMP280;12820;51.580;5.010;2023-02-03T16:38:07;102918.94;;;13.04
24714;BMP280;12820;51.580;5.010;2023-02-03T16:43:31;102922.25;;;12.98
24714;BMP280;12820;51.580;5.010;2023-02-03T16:48:52;102919.63;;;12.91
24714;BMP280;12820;51.580;5.010;2023-02-03T16:54:13;102926.31;;;12.83
24714;BMP280;12820;51.580;5.010;2023-02-03T16:59:15;102924.53;;;12.77
24714;BMP280;12820;51.580;5.010;2023-02-03T17:04:17;102931.22;;;12.72
24714;BMP280;12820;51.580;5.010;2023-02-03T17:09:19;102944.63;;;12.66
24714;BMP280;12820;51.580;5.010;2023-02-03T17:14:24;102957.22;;;12.63
24714;BMP280;12820;51.580;5.010;2023-02-03T17:19:27;102975.72;;;12.61
24714;BMP280;12820;51.580;5.010;2023-02-03T17:24:29;102974.78;;;12.58
24714;BMP280;12820;51.580;5.010;2023-02-03T17:29:32;102994.97;;;12.56
24714;BMP280;12820;51.580;5.010;2023-02-03T17:34:34;102999.94;;;12.53
24714;BMP280;12820;51.580;5.010;2023-02-03T17:39:36;102994.88;;;12.50
24714;BMP280;12820;51.580;5.010;2023-02-03T17:44:56;103004.91;;;12.47
24714;BMP280;12820;51.580;5.010;2023-02-03T17:50:16;103020.06;;;12.46
24714;BMP280;12820;51.580;5.010;2023-02-03T17:55:39;103035.16;;;12.44
24714;BMP280;12820;51.580;5.010;2023-02-03T18:00:41;103041.88;;;12.43
24714;BMP280;12820;51.580;5.010;2023-02-03T18:05:50;103042.72;;;12.42
24714;BMP280;12820;51.580;5.010;2023-02-03T18:10:52;103051.91;;;12.40
24714;BMP280;12820;51.580;5.010;2023-02-03T18:15:55;103062.81;;;12.39
24714;BMP280;12820;51.580;5.010;2023-02-03T18:20:57;103058.56;;;12.35
24714;BMP280;12820;51.580;5.010;2023-02-03T18:25:59;103068.63;;;12.32
24714;BMP280;12820;51.580;5.010;2023-02-03T18:31:15;103071.94;;;12.29
24714;BMP280;12820;51.580;5.010;2023-02-03T18:36:18;103088.72;;;12.26
24714;BMP280;12820;51.580;5.010;2023-02-03T18:41:23;103094.53;;;12.22
24714;BMP280;12820;51.580;5.010;2023-02-03T18:46:28;103105.41;;;12.18
24714;BMP280;12820;51.580;5.010;2023-02-03T18:51:30;103102.00;;;12.16
24714;BMP280;12820;51.580;5.010;2023-02-03T18:56:32;103113.75;;;12.14
24714;BMP280;12820;51.580;5.010;2023-02-03T19:01:38;103119.63;;;12.13
24714;BMP280;12820;51.580;5.010;2023-02-03T19:06:40;103128.81;;;12.11
24714;BMP280;12820;51.580;5.010;2023-02-03T19:11:46;103136.34;;;12.10
24714;BMP280;12820;51.580;5.010;2023-02-03T19:16:49;103149.78;;;12.07
24714;BMP280;12820;51.580;5.010;2023-02-03T19:21:54;103141.34;;;12.06
24714;BMP280;12820;51.580;5.010;2023-02-03T19:26:56;103152.28;;;12.05
24714;BMP280;12820;51.580;5.010;2023-02-03T19:31:58;103147.16;;;12.02
24714;BMP280;12820;51.580;5.010;2023-02-03T19:37:01;103160.56;;;12.01
24714;BMP280;12820;51.580;5.010;2023-02-03T19:42:03;103172.34;;;11.99
24714;BMP280;12820;51.580;5.010;2023-02-03T19:47:05;103163.03;;;11.96
24714;BMP280;12820;51.580;5.010;2023-02-03T19:52:07;103162.16;;;11.94
24714;BMP280;12820;51.580;5.010;2023-02-03T19:57:11;103172.19;;;11.91
24714;BMP280;12820;51.580;5.010;2023-02-03T20:02:13;103184.75;;;11.89
24714;BMP280;12820;51.580;5.010;2023-02-03T20:07:17;103183.78;;;11.82
24714;BMP280;12820;51.580;5.010;2023-02-03T20:12:19;103187.06;;;11.78
24714;BMP280;12820;51.580;5.010;2023-02-03T20:17:21;103197.03;;;11.72
24714;BMP280;12820;51.580;5.010;2023-02-03T20:22:23;103188.53;;;11.68
24714;BMP280;12820;51.580;5.010;2023-02-03T20:27:26;103192.72;;;11.66
24714;BMP280;12820;51.580;5.010;2023-02-03T20:32:28;103202.66;;;11.58
24714;BMP280;12820;51.580;5.010;2023-02-03T20:37:31;103198.34;;;11.52
24714;BMP280;12820;51.580;5.010;2023-02-03T20:42:33;103201.59;;;11.46
24714;BMP280;12820;51.580;5.010;2023-02-03T20:47:35;103221.59;;;11.40
24714;BMP280;12820;51.580;5.010;2023-02-03T20:52:37;103218.97;;;11.35
24714;BMP280;12820;51.580;5.010;2023-02-03T20:57:40;103228.09;;;11.30
24714;BMP280;12820;51.580;5.010;2023-02-03T21:02:46;103221.25;;;11.26
24714;BMP280;12820;51.580;5.010;2023-02-03T21:08:15;103224.53;;;11.22
24714;BMP280;12820;51.580;5.010;2023-02-03T21:13:21;103231.19;;;11.18
24714;BMP280;12820;51.580;5.010;2023-02-03T21:18:38;103226.94;;;11.16
24714;BMP280;12820;51.580;5.010;2023-02-03T21:23:43;103227.75;;;11.15
24714;BMP280;12820;51.580;5.010;2023-02-03T21:28:59;103236.13;;;11.14
24714;BMP280;12820;51.580;5.010;2023-02-03T21:34:08;103231.81;;;11.10
24714;BMP280;12820;51.580;5.010;2023-02-03T21:39:32;103239.31;;;11.07
24714;BMP280;12820;51.580;5.010;2023-02-03T21:44:35;103248.44;;;11.02
24714;BMP280;12820;51.580;5.010;2023-02-03T21:49:37;103253.38;;;10.98
24714;BMP280;12820;51.580;5.010;2023-02-03T21:54:39;103252.47;;;10.95
24714;BMP280;12820;51.580;5.010;2023-02-03T21:59:44;103254.03;;;10.90
24714;BMP280;12820;51.580;5.010;2023-02-03T22:04:48;103256.47;;;10.87
24714;BMP280;12820;51.580;5.010;2023-02-03T22:09:50;103258.03;;;10.82
24714;BMP280;12820;51.580;5.010;2023-02-03T22:14:52;103270.56;;;10.79
24714;BMP280;12820;51.580;5.010;2023-02-03T22:19:54;103270.50;;;10.76
24714;BMP280;12820;51.580;5.010;2023-02-03T22:24:56;103284.69;;;10.74
24714;BMP280;12820;51.580;5.010;2023-02-03T22:29:59;103286.31;;;10.72
24714;BMP280;12820;51.580;5.010;2023-02-03T22:35:02;103288.78;;;10.69
24714;BMP280;12820;51.580;5.010;2023-02-03T22:40:04;103297.09;;;10.67
24714;BMP280;12820;51.580;5.010;2023-02-03T22:45:07;103308.78;;;10.65
24714;BMP280;12820;51.580;5.010;2023-02-03T22:50:11;103302.00;;;10.63
24714;BMP280;12820;51.580;5.010;2023-02-03T22:55:14;103314.56;;;10.63
24714;BMP280;12820;51.580;5.010;2023-02-03T23:00:20;103317.88;;;10.60
24714;BMP280;12820;51.580;5.010;2023-02-03T23:05:22;103319.50;;;10.58
24714;BMP280;12820;51.580;5.010;2023-02-03T23:10:27;103322.84;;;10.57
24714;BMP280;12820;51.580;5.010;2023-02-03T23:15:32;103327.84;;;10.56
24714;BMP280;12820;51.580;5.010;2023-02-03T23:20:34;103331.97;;;10.54
24714;BMP280;12820;51.580;5.010;2023-02-03T23:25:36;103325.25;;;10.53
24714;BMP280;12820;51.580;5.010;2023-02-03T23:30:38;103341.09;;;10.50
24714;BMP280;12820;51.580;5.010;2023-02-03T23:35:41;103331.84;;;10.49
24714;BMP280;12820;51.580;5.010;2023-02-03T23:40:46;103326.81;;;10.48
24714;BMP280;12820;51.580;5.010;2023-02-03T23:45:48;103337.66;;;10.47
24714;BMP280;12820;51.580;5.010;2023-02-03T23:50:50;103349.38;;;10.47
24714;BMP280;12820;51.580;5.010;2023-02-03T23:55:52;103346.06;;;10.48
